sim
Sign-in with your pilot id or email,
or register
Callsign
Passwort

Schedule Details

Flight Number: OEO2584
Departure: Munich Airport (EDDM) at 04:20
Arrival: Malaga Costa Del Sol Airport (LEMG) at 07:30

Weather Information
Getting current METAR information for EDDM 202050Z 00000KT CAVOK 11/10 Q1016 NOSIG
Getting current METAR information for LEMG 202100Z 27008KT CAVOK 25/14 Q1017 NOSIG

Schedule Frequency

Route Map